CW8122 Weather Reports


Display with metric or nautical units.
time (UTC)temp
F
wind
direction
speed
MPH
gust
MPH
rain 1hr
in
rain 24hr
in
rain mn
in
humidity
%
barometer
mb
20210917194704 94 5 3.0 7.0 0.00 0.00 0.00 10 1021.4
20210917194204 96 211 1.0 12.0 0.00 0.00 0.00 9 1021.4
20210917193704 95 290 2.0 8.0 0.00 0.00 0.00 10 1021.4
20210917193204 94 266 2.0 9.0 0.00 0.00 0.00 11 1021.5
20210917191704 93 203 0.0 2.0 0.00 0.00 0.00 11 1021.5
20210917191204 93 183 0.0 8.0 0.00 0.00 0.00 11 1021.6
20210917190204 91 280 4.0 9.0 0.00 0.00 0.00 12 1021.7
20210917185704 91 30 1.0 7.0 0.00 0.00 0.00 12 1021.7
20210917185204 92 342 3.0 8.0 0.00 0.00 0.00 11 1021.7
20210917184704 92 353 1.0 5.0 0.00 0.00 0.00 11 1021.8
20210917183704 91 326 4.0 12.0 0.00 0.00 0.00 12 1021.8
20210917183204 90 276 3.0 12.0 0.00 0.00 0.00 13 1021.9
20210917182704 90 33 0.0 3.0 0.00 0.00 0.00 12 1022.0
20210917182204 90 283 2.0 8.0 0.00 0.00 0.00 14 1022.1
20210917181704 89 297 3.0 8.0 0.00 0.00 0.00 14 1022.2
20210917180204 89 85 2.0 8.0 0.00 0.00 0.00 14 1022.2
20210917175203 87 79 1.0 3.0 0.00 0.00 0.00 16 1022.3
20210917174704 87 73 1.0 5.0 0.00 0.00 0.00 16 1022.3
20210917173704 86 59 0.0 3.0 0.00 0.00 0.00 16 1022.6
20210917173203 85 32 0.0 0.0 0.00 0.00 0.00 17 1022.6
20210917172704 84 46 0.0 0.0 0.00 0.00 0.00 17 1022.6
20210917170704 83 58 0.0 1.0 0.00 0.00 0.00 18 1022.6
20210917170204 82 44 0.0 0.0 0.00 0.00 0.00 18 1022.7
20210917164704 82 350 1.0 6.0 0.00 0.00 0.00 18 1022.8
20210917164203 81 35 0.0 0.0 0.00 0.00 0.00 19 1022.7
20210917163704 80 35 0.0 0.0 0.00 0.00 0.00 20 1022.7
20210917163204 80 35 0.0 2.0 0.00 0.00 0.00 20 1022.7
20210917162204 79 61 0.0 0.0 0.00 0.00 0.00 21 1022.8
20210917161704 78 63 0.0 0.0 0.00 0.00 0.00 21 1022.7
20210917161203 78 65 0.0 0.0 0.00 0.00 0.00 21 1022.8
20210917160703 78 66 0.0 1.0 0.00 0.00 0.00 23 1022.7
20210917155704 77 64 0.0 0.0 0.00 0.00 0.00 22 1022.8
20210917154703 76 64 0.0 0.0 0.00 0.00 0.00 22 1022.7
20210917153704 75 65 0.0 0.0 0.00 0.00 0.00 23 1022.6
20210917153204 75 65 0.0 0.0 0.00 0.00 0.00 24 1022.6
20210917152704 74 66 0.0 0.0 0.00 0.00 0.00 24 1022.5
20210917152205 73 66 0.0 0.0 0.00 0.00 0.00 24 1022.6
20210917151204 71 66 0.0 0.0 0.00 0.00 0.00 26 1022.7
20210917150703 71 66 0.0 0.0 0.00 0.00 0.00 26 1022.6
20210917150204 70 66 0.0 0.0 0.00 0.00 0.00 27 1022.6
20210917145704 70 66 0.0 0.0 0.00 0.00 0.00 26 1022.6
20210917145204 69 66 0.0 0.0 0.00 0.00 0.00 27 1022.4
20210917144704 68 66 0.0 0.0 0.00 0.00 0.00 28 1022.4
20210917143704 67 66 0.0 0.0 0.00 0.00 0.00 29 1022.3
20210917143204 67 66 0.0 0.0 0.00 0.00 0.00 31 1022.2
20210917142204 65 69 0.0 0.0 0.00 0.00 0.00 28 1022.1
20210917141703 64 67 0.0 1.0 0.00 0.00 0.00 29 1022.1
20210917140204 61 232 0.0 0.0 0.00 0.00 0.00 30 1022.0
20210917135703 60 233 0.0 0.0 0.00 0.00 0.00 31 1021.9
20210917134704 58 0 0.0 0.0 0.00 0.00 0.00 36 1021.9
20210917134204 57 0 0.0 0.0 0.00 0.00 0.00 36 1021.8
20210917133703 57 2 0.0 0.0 0.00 0.00 0.00 36 1021.8
20210917133203 57 9 0.0 0.0 0.00 0.00 0.00 35 1021.7
20210917132704 57 9 0.0 0.0 0.00 0.00 0.00 35 1021.7
20210917132204 56 9 0.0 0.0 0.00 0.00 0.00 35 1021.6
20210917131703 56 9 0.0 0.0 0.00 0.00 0.00 35 1021.6
20210917131203 56 10 0.0 0.0 0.00 0.00 0.00 35 1021.5
20210917130204 56 11 0.0 0.0 0.00 0.00 0.00 34 1021.5
20210917125704 57 11 0.0 0.0 0.00 0.00 0.00 33 1021.4
20210917125204 57 11 0.0 0.0 0.00 0.00 0.00 33 1021.3
20210917124704 57 11 0.0 0.0 0.00 0.00 0.00 33 1021.3
20210917124203 57 11 0.0 0.0 0.00 0.00 0.00 33 1021.3
20210917123704 57 11 0.0 0.0 0.00 0.00 0.00 32 1021.2
20210917123204 57 11 0.0 0.0 0.00 0.00 0.00 32 1021.1
20210917122703 57 11 0.0 0.0 0.00 0.00 0.00 32 1021.0
20210917122204 57 11 0.0 0.0 0.00 0.00 0.00 32 1020.9
20210917121704 57 11 0.0 0.0 0.00 0.00 0.00 32 1020.7
20210917121203 57 11 0.0 0.0 0.00 0.00 0.00 32 1020.6
20210917120703 57 11 0.0 0.0 0.00 0.00 0.00 32 1020.6
20210917115204 58 11 0.0 0.0 0.00 0.00 0.00 32 1020.5
20210917114703 58 11 0.0 0.0 0.00 0.00 0.00 33 1020.4
20210917114203 58 11 0.0 0.0 0.00 0.00 0.00 32 1020.3
20210917113205 58 11 0.0 0.0 0.00 0.00 0.00 31 1020.3
20210917111203 59 11 0.0 0.0 0.00 0.00 0.00 31 1020.0
20210917110703 59 11 0.0 0.0 0.00 0.00 0.00 31 1019.9
20210917110204 59 11 0.0 0.0 0.00 0.00 0.00 29 1019.9
20210917105204 60 11 0.0 0.0 0.00 0.00 0.00 29 1019.8
20210917104704 60 11 0.0 0.0 0.00 0.00 0.00 29 1019.9
20210917104203 60 11 0.0 0.0 0.00 0.00 0.00 29 1019.8
20210917103204 60 341 0.0 0.0 0.00 0.00 0.00 32 1019.7
20210917102204 60 302 0.0 0.0 0.00 0.00 0.00 31 1019.7
20210917101704 60 302 0.0 0.0 0.00 0.00 0.00 31 1019.7
20210917100704 61 304 0.0 0.0 0.00 0.00 0.00 30 1019.5
20210917100205 61 304 0.0 0.0 0.00 0.00 0.00 29 1019.4
20210917095203 61 304 0.0 0.0 0.00 0.00 0.00 29 1019.2
20210917094703 61 304 0.0 0.0 0.00 0.00 0.00 28 1019.2
20210917093704 62 304 0.0 0.0 0.00 0.00 0.00 28 1019.1
20210917092704 62 304 0.0 0.0 0.00 0.00 0.00 28 1019.1
20210917092204 62 304 0.0 0.0 0.00 0.00 0.00 27 1019.0
20210917090703 63 303 0.0 0.0 0.00 0.00 0.00 26 1018.9
20210917090204 63 303 0.0 0.0 0.00 0.00 0.00 26 1018.9
20210917085705 63 303 0.0 0.0 0.00 0.00 0.00 26 1018.9
20210917084204 64 303 0.0 0.0 0.00 0.00 0.00 26 1018.7
20210917083704 64 303 0.0 0.0 0.00 0.00 0.00 26 1018.7
20210917082703 64 303 0.0 0.0 0.00 0.00 0.00 26 1018.6
20210917082203 65 303 0.0 0.0 0.00 0.00 0.00 25 1018.6
20210917081705 65 303 0.0 0.0 0.00 0.00 0.00 25 1018.5
20210917081204 65 303 0.0 0.0 0.00 0.00 0.00 25 1018.5
20210917080704 65 303 0.0 0.0 0.00 0.00 0.00 25 1018.4
20210917080204 65 303 0.0 0.0 0.00 0.00 0.00 24 1018.5
20210917075704 66 303 0.0 0.0 0.00 0.00 0.00 24 1018.5
20210917075204 66 303 0.0 0.0 0.00 0.00 0.00 23 1018.4
20210917074704 66 303 0.0 0.0 0.00 0.00 0.00 23 1018.4
20210917074204 66 303 0.0 0.0 0.00 0.00 0.00 23 1018.3
20210917072704 67 350 0.0 0.0 0.00 0.00 0.00 23 1018.2
20210917072204 68 350 0.0 0.0 0.00 0.00 0.00 23 1018.2
20210917070704 69 345 0.0 0.0 0.00 0.00 0.00 21 1018.1
20210917065703 69 345 0.0 0.0 0.00 0.00 0.00 21 1018.0
20210917065204 69 345 0.0 0.0 0.00 0.00 0.00 21 1018.0
20210917064704 70 345 0.0 0.0 0.00 0.00 0.00 21 1018.0
20210917063704 70 345 0.0 0.0 0.00 0.00 0.00 19 1018.0
20210917063204 70 345 0.0 0.0 0.00 0.00 0.00 19 1018.0
20210917062204 70 345 0.0 1.0 0.00 0.00 0.00 20 1017.9
20210917061704 70 345 0.0 1.0 0.00 0.00 0.00 20 1017.9
20210917061204 69 343 0.0 0.0 0.00 0.00 0.00 21 1017.8
20210917060705 69 342 0.0 1.0 0.00 0.00 0.00 20 1017.7
20210917055704 69 32 0.0 0.0 0.00 0.00 0.00 21 1017.6
20210917055204 70 32 0.0 0.0 0.00 0.00 0.00 21 1017.6
20210917054205 70 32 0.0 0.0 0.00 0.00 0.00 20 1017.6
20210917053704 70 32 0.0 0.0 0.00 0.00 0.00 20 1017.5
20210917052703 70 6 0.0 0.0 0.00 0.00 0.00 19 1017.5
20210917051204 72 6 0.0 0.0 0.00 0.00 0.00 19 1017.3
20210917045703 72 6 0.0 0.0 0.00 0.00 0.00 18 1017.2
20210917045203 73 5 0.0 0.0 0.00 0.00 0.00 18 1017.0
20210917044703 73 350 0.0 0.0 0.00 0.00 0.00 18 1017.0
20210917044204 74 350 0.0 1.0 0.00 0.00 0.00 18 1017.0
20210917043203 75 313 0.0 0.0 0.00 0.00 0.00 17 1017.0
20210917042703 75 285 0.0 0.0 0.00 0.00 0.00 17 1017.0
20210917042203 75 285 0.0 0.0 0.00 0.00 0.00 17 1017.0
20210917041703 75 279 0.0 6.0 0.00 0.00 0.00 17 1016.9
20210917040703 76 301 0.0 1.0 0.00 0.00 0.00 16 1016.9
20210917040204 76 320 0.0 0.0 0.00 0.00 0.00 16 1016.8
20210917035203 77 313 0.0 1.0 0.00 0.00 0.00 15 1016.8
20210917034704 77 313 0.0 3.0 0.00 0.00 0.00 15 1016.8
20210917034204 77 311 1.0 5.0 0.00 0.00 0.00 14 1016.7
20210917033704 78 301 1.0 5.0 0.00 0.00 0.00 14 1016.7
20210917033203 78 294 2.0 7.0 0.00 0.00 0.00 14 1016.7
20210917032704 79 303 1.0 6.0 0.00 0.00 0.00 14 1016.6
20210917032204 79 288 1.0 5.0 0.00 0.00 0.00 13 1016.5
20210917031703 79 275 1.0 6.0 0.00 0.00 0.00 13 1016.4
20210917031204 79 291 0.0 8.0 0.00 0.00 0.00 14 1016.4
20210917030704 79 280 1.0 8.0 0.00 0.00 0.00 14 1016.3
20210917030203 79 282 1.0 7.0 0.00 0.00 0.00 14 1016.2
20210917024204 80 274 1.0 6.0 0.00 0.00 0.00 14 1015.9
20210917023704 80 289 1.0 6.0 0.00 0.00 0.00 14 1015.8
20210917022204 81 279 2.0 9.0 0.00 0.00 0.00 15 1015.6
20210917021704 82 295 1.0 7.0 0.00 0.00 0.00 15 1015.6
20210917021204 82 288 1.0 6.0 0.00 0.00 0.00 15 1015.5
20210917020704 82 289 0.0 12.0 0.00 0.00 0.00 14 1015.4
20210917020203 83 291 3.0 10.0 0.00 0.00 0.00 14 1015.2
20210917015703 84 280 3.0 9.0 0.00 0.00 0.00 13 1015.1
20210917015204 84 274 0.0 3.0 0.00 0.00 0.00 13 1015.0
20210917014703 84 185 1.0 5.0 0.00 0.00 0.00 12 1014.9
20210917013204 85 145 0.0 0.0 0.00 0.00 0.00 12 1014.7
20210917012203 85 176 0.0 1.0 0.00 0.00 0.00 12 1014.7
20210917010704 86 218 0.0 1.0 0.00 0.00 0.00 12 1014.7
20210917010203 87 218 0.0 2.0 0.00 0.00 0.00 12 1014.7
20210917005703 87 218 0.0 3.0 0.00 0.00 0.00 12 1014.7
20210917005204 87 208 1.0 3.0 0.00 0.00 0.00 12 1014.7
20210917004704 87 228 0.0 3.0 0.00 0.00 0.00 12 1014.8
20210917004203 88 199 0.0 3.0 0.00 0.00 0.00 12 1014.8
20210917002704 88 204 2.0 6.0 0.00 0.00 0.00 11 1014.8
20210917002204 88 232 1.0 3.0 0.00 0.00 0.00 11 1014.7
20210917001703 89 200 1.0 6.0 0.00 0.00 0.00 11 1014.7
20210917001203 89 234 0.0 3.0 0.00 0.00 0.00 11 1014.7
20210917000704 90 209 1.0 12.0 0.00 0.00 0.00 11 1014.7
20210916235703 90 219 4.0 12.0 0.00 0.00 0.00 11 1014.6
20210916235203 90 235 2.0 10.0 0.00 0.00 0.00 11 1014.6
20210916234204 91 200 2.0 12.0 0.00 0.00 0.00 11 1014.5
20210916233704 91 219 2.0 12.0 0.00 0.00 0.00 11 1014.6
20210916233203 91 191 5.0 15.0 0.00 0.00 0.00 11 1014.5
20210916232704 91 102 4.0 12.0 0.00 0.00 0.00 11 1014.4
20210916232203 92 231 0.0 3.0 0.00 0.00 0.00 12 1014.4
20210916231704 91 294 2.0 9.0 0.00 0.00 0.00 12 1014.5
20210916231205 91 158 0.0 1.0 0.00 0.00 0.00 12 1014.5
20210916230703 92 167 0.0 2.0 0.00 0.00 0.00 12 1014.5
20210916225204 90 204 2.0 7.0 0.00 0.00 0.00 13 1014.5
20210916224205 90 167 2.0 8.0 0.00 0.00 0.00 13 1014.5
20210916223704 91 182 3.0 9.0 0.00 0.00 0.00 13 1014.5
20210916223204 93 128 1.0 7.0 0.00 0.00 0.00 13 1014.5
20210916221704 93 246 0.0 6.0 0.00 0.00 0.00 12 1014.6
20210916221204 91 241 7.0 13.0 0.00 0.00 0.00 12 1014.7
20210916220704 91 201 5.0 17.0 0.00 0.00 0.00 13 1014.6
20210916220204 91 131 4.0 10.0 0.00 0.00 0.00 14 1014.7
20210916215204 91 165 1.0 12.0 0.00 0.00 0.00 13 1014.7
20210916214204 92 97 0.0 0.0 0.00 0.00 0.00 14 1014.8
20210916213704 91 161 1.0 7.0 0.00 0.00 0.00 13 1014.9
20210916212704 91 145 4.0 10.0 0.00 0.00 0.00 13 1014.9
20210916211704 91 190 2.0 12.0 0.00 0.00 0.00 12 1015.1
20210916211204 91 188 2.0 7.0 0.00 0.00 0.00 12 1015.2
20210916210705 91 160 5.0 13.0 0.00 0.00 0.00 13 1015.3
20210916205704 90 179 3.0 9.0 0.00 0.00 0.00 12 1015.4
20210916205204 91 185 3.0 13.0 0.00 0.00 0.00 12 1015.5
20210916204704 90 192 1.0 6.0 0.00 0.00 0.00 13 1015.5
20210916204204 90 180 4.0 12.0 0.00 0.00 0.00 12 1015.6
20210916203205 90 239 4.0 12.0 0.00 0.00 0.00 13 1015.7
20210916202704 90 158 4.0 13.0 0.00 0.00 0.00 15 1015.8
20210916202204 90 126 3.0 10.0 0.00 0.00 0.00 15 1015.8
20210916201705 89 68 1.0 10.0 0.00 0.00 0.00 16 1015.9
20210916201204 89 117 0.0 14.0 0.00 0.00 0.00 16 1016.0
20210916200704 88 125 1.0 7.0 0.00 0.00 0.00 16 1016.1
20210916195705 89 112 0.0 1.0 0.00 0.00 0.00 16 1016.3